Time;durP1;ratioP1;P1;durP2;ratioP2;P2;SDS_P1;SDS_P2;PMS_P1;PMS_P2;Temp;Humidity;BMP_temperature;BMP_pressure;BME280_temperature;BME280_humidity;BME280_pressure;Samples;Min_cycle;Max_cycle;Signal;HPM_P1;HPM_P2
2022/10/10 00:00:30;;;;;;;5.57;3.05;;;9.60;99.90;;;;;;4993856;28;20042;-73
2022/10/10 00:02:56;;;;;;;7.45;3.28;;;9.50;99.90;;;;;;4992758;28;20034;-73
2022/10/10 00:05:21;;;;;;;5.47;2.70;;;9.50;99.90;;;;;;4993903;28;20046;-73
2022/10/10 00:07:47;;;;;;;6.63;3.20;;;9.50;99.90;;;;;;4993026;28;20045;-73
2022/10/10 00:10:12;;;;;;;6.43;2.90;;;9.40;99.90;;;;;;4993517;28;20405;-73
2022/10/10 00:12:38;;;;;;;6.82;3.22;;;9.30;99.90;;;;;;4992658;28;20077;-73
2022/10/10 00:15:04;;;;;;;7.32;3.38;;;9.30;99.90;;;;;;4993344;28;20042;-73
2022/10/10 00:17:30;;;;;;;5.60;2.92;;;9.30;99.90;;;;;;4992416;28;20561;-73
2022/10/10 00:19:55;;;;;;;7.38;3.20;;;9.40;99.90;;;;;;4993313;28;20124;-73
2022/10/10 00:22:21;;;;;;;8.25;3.03;;;9.40;99.90;;;;;;5008417;28;20045;-73
2022/10/10 00:24:47;;;;;;;8.18;3.65;;;9.50;99.90;;;;;;4991399;28;20125;-73
2022/10/10 00:27:12;;;;;;;8.50;3.15;;;9.50;99.90;;;;;;4992355;28;20046;-73
2022/10/10 00:29:38;;;;;;;7.38;3.35;;;9.50;99.90;;;;;;4993200;28;20467;-73
2022/10/10 00:32:03;;;;;;;7.30;3.30;;;9.60;99.90;;;;;;4992374;28;20038;-73
2022/10/10 00:34:29;;;;;;;6.63;3.30;;;9.70;99.90;;;;;;4976174;28;20046;-73
2022/10/10 00:36:54;;;;;;;7.32;3.60;;;9.70;99.90;;;;;;5008345;28;20045;-73
2022/10/10 00:39:20;;;;;;;7.35;3.55;;;9.70;99.90;;;;;;4976841;28;20455;-73
2022/10/10 00:41:46;;;;;;;7.82;3.30;;;9.70;99.90;;;;;;4992128;28;20043;-73
2022/10/10 00:44:13;;;;;;;6.93;3.45;;;9.70;99.90;;;;;;4992894;28;20133;-73
2022/10/10 00:46:39;;;;;;;8.00;3.15;;;9.70;99.90;;;;;;4975876;28;20078;-73
2022/10/10 00:49:11;;;;;;;7.93;3.67;;;9.70;99.90;;;;;;4992954;28;20038;-73
2022/10/10 00:51:38;;;;;;;;;;;9.70;99.90;;;;;;5009608;28;20053;-73
2022/10/10 00:54:08;;;;;;;7.95;3.15;;;9.70;99.90;;;;;;5007458;28;20033;-73
2022/10/10 00:56:58;;;;;;;6.70;3.08;;;9.60;99.90;;;;;;4988482;28;20038;-73
2022/10/10 00:59:26;;;;;;;6.43;3.17;;;9.70;99.90;;;;;;4956180;28;20160;-73
2022/10/10 01:01:51;;;;;;;12.50;5.15;;;9.70;99.90;;;;;;4990311;28;20053;-73
2022/10/10 01:04:28;;;;;;;6.68;3.05;;;9.70;99.90;;;;;;4992896;28;20047;-73
2022/10/10 01:06:54;;;;;;;7.57;3.33;;;9.60;99.90;;;;;;5008260;28;20058;-73
2022/10/10 01:09:20;;;;;;;6.90;3.58;;;9.60;99.90;;;;;;5008987;28;20038;-74
2022/10/10 01:11:54;;;;;;;5.63;3.30;;;9.60;99.90;;;;;;4991841;28;20145;-73
2022/10/10 01:14:44;;;;;;;7.90;3.50;;;9.60;99.90;;;;;;5008672;28;20042;-74
2022/10/10 01:17:32;;;;;;;6.30;3.42;;;9.60;99.90;;;;;;4991644;28;20038;-73
2022/10/10 01:20:07;;;;;;;7.68;3.30;;;9.60;99.90;;;;;;4990845;28;20030;-73
2022/10/10 01:22:45;;;;;;;6.38;3.50;;;9.60;99.90;;;;;;4992632;28;20492;-73
2022/10/10 01:25:39;;;;;;;6.35;3.30;;;9.60;99.90;;;;;;4975575;28;20054;-73
2022/10/10 01:28:41;;;;;;;7.00;3.42;;;9.50;99.90;;;;;;4974943;28;20054;-73
2022/10/10 01:31:10;;;;;;;6.00;3.65;;;9.60;99.90;;;;;;4983950;28;20145;-73
2022/10/10 01:33:54;;;;;;;7.57;3.72;;;9.50;99.90;;;;;;5007694;28;20046;-73
2022/10/10 01:36:37;;;;;;;7.38;3.67;;;9.50;99.90;;;;;;4990571;28;20069;-73
2022/10/10 01:39:17;;;;;;;7.07;3.47;;;9.50;99.90;;;;;;4991936;28;20038;-73
2022/10/10 01:41:53;;;;;;;5.93;3.38;;;9.40;99.90;;;;;;4991611;28;20041;-73
2022/10/10 01:44:21;;;;;;;7.40;3.95;;;9.50;99.90;;;;;;4976341;28;20458;-73
2022/10/10 01:46:47;;;;;;;6.95;3.40;;;9.50;99.90;;;;;;4975220;28;20070;-73
2022/10/10 01:49:12;;;;;;;5.30;2.95;;;9.30;99.90;;;;;;4975989;28;20073;-73
2022/10/10 01:51:57;;;;;;;7.13;3.40;;;9.30;99.90;;;;;;4992286;28;20034;-73
2022/10/10 01:54:47;;;;;;;9.98;3.95;;;9.20;99.90;;;;;;4989861;28;20034;-73
2022/10/10 01:58:00;;;;;;;7.70;3.58;;;9.30;99.90;;;;;;5007473;28;20067;-73
2022/10/10 02:00:26;;;;;;;6.75;3.88;;;9.20;99.90;;;;;;4988765;28;20050;-73
2022/10/10 02:03:10;;;;;;;7.70;3.70;;;9.10;99.90;;;;;;4991212;28;20121;-73
2022/10/10 02:05:45;;;;;;;8.27;3.92;;;9.10;99.90;;;;;;5008463;28;20052;-73
2022/10/10 02:08:25;;;;;;;9.13;3.88;;;9.10;99.90;;;;;;4991693;28;20058;-73
2022/10/10 02:10:59;;;;;;;7.88;3.58;;;9.10;99.90;;;;;;4993675;28;20049;-73
2022/10/10 02:13:31;;;;;;;8.18;3.97;;;9.10;99.90;;;;;;4994903;28;20046;-73
2022/10/10 02:15:59;;;;;;;7.88;3.97;;;9.10;99.90;;;;;;5011030;28;20050;-73
2022/10/10 02:18:29;;;;;;;9.07;4.07;;;9.20;99.90;;;;;;4979171;28;20038;-73
2022/10/10 02:20:56;;;;;;;5.95;3.60;;;9.20;99.90;;;;;;4973296;28;20046;-73
2022/10/10 02:23:22;;;;;;;7.85;3.92;;;9.20;99.90;;;;;;4986245;28;20040;-73
2022/10/10 02:25:53;;;;;;;7.20;3.50;;;9.10;99.90;;;;;;4992771;28;20042;-73
2022/10/10 02:28:30;;;;;;;9.10;4.40;;;9.10;99.90;;;;;;4994060;28;20631;-73
2022/10/10 02:31:00;;;;;;;7.40;4.07;;;9.20;99.90;;;;;;4995037;28;20439;-73
2022/10/10 02:33:45;;;;;;;8.05;3.97;;;9.10;99.90;;;;;;5010490;28;20054;-73
2022/10/10 02:36:13;;;;;;;7.72;3.60;;;9.10;99.90;;;;;;4994619;28;20082;-73
2022/10/10 02:38:40;;;;;;;8.32;3.90;;;9.10;99.90;;;;;;5010648;28;20113;-73
2022/10/10 02:41:09;;;;;;;10.43;4.20;;;9.00;99.90;;;;;;5028296;28;20402;-73
2022/10/10 02:43:35;;;;;;;6.45;3.65;;;9.00;99.90;;;;;;4990130;28;20042;-74
2022/10/10 02:46:03;;;;;;;8.68;4.03;;;9.00;99.90;;;;;;4976590;28;20065;-74
2022/10/10 02:48:29;;;;;;;8.57;4.13;;;9.10;99.90;;;;;;5011254;28;20042;-74
2022/10/10 02:50:55;;;;;;;7.35;3.83;;;9.00;99.90;;;;;;4978754;28;20113;-74
2022/10/10 02:53:21;;;;;;;8.95;4.43;;;9.00;99.90;;;;;;4994132;28;20050;-74
2022/10/10 02:55:46;;;;;;;9.50;4.38;;;9.00;99.90;;;;;;4976900;28;20046;-74
2022/10/10 02:58:13;;;;;;;9.85;4.50;;;9.00;99.90;;;;;;4994769;28;20054;-74
2022/10/10 03:00:39;;;;;;;8.38;4.10;;;9.00;99.90;;;;;;4995098;28;20392;-74
2022/10/10 03:03:04;;;;;;;8.13;3.83;;;9.00;99.90;;;;;;4977262;28;20100;-74
2022/10/10 03:05:30;;;;;;;6.88;4.05;;;8.90;99.90;;;;;;4993795;28;20512;-74
2022/10/10 03:07:55;;;;;;;6.63;3.90;;;8.90;99.90;;;;;;4978519;28;20042;-74
2022/10/10 03:10:21;;;;;;;9.27;4.57;;;8.90;99.90;;;;;;5011042;28;20038;-74
2022/10/10 03:12:47;;;;;;;7.30;3.65;;;8.90;99.90;;;;;;5010019;28;20046;-74
2022/10/10 03:15:12;;;;;;;8.85;4.13;;;9.00;99.90;;;;;;4977331;28;20034;-74
2022/10/10 03:17:38;;;;;;;6.75;3.95;;;9.00;99.90;;;;;;4994532;28;20129;-74
2022/10/10 03:20:05;;;;;;;8.38;4.10;;;9.10;99.90;;;;;;4994479;28;20383;-74
2022/10/10 03:22:30;;;;;;;6.88;4.13;;;9.00;99.90;;;;;;4976813;28;20042;-74
2022/10/10 03:24:56;;;;;;;8.77;4.15;;;9.00;99.90;;;;;;4993528;28;20042;-74
2022/10/10 03:27:22;;;;;;;10.30;4.55;;;9.00;99.90;;;;;;4976519;28;20149;-74
2022/10/10 03:29:47;;;;;;;8.48;4.32;;;9.00;99.90;;;;;;4993460;28;20057;-74
2022/10/10 03:32:13;;;;;;;8.68;4.30;;;9.00;99.90;;;;;;4993471;28;20073;-74
2022/10/10 03:34:38;;;;;;;7.25;4.30;;;9.00;99.90;;;;;;5010535;28;20046;-73
2022/10/10 03:37:04;;;;;;;7.85;4.35;;;9.00;99.90;;;;;;5009608;28;20046;-74
2022/10/10 03:39:30;;;;;;;8.55;4.78;;;9.00;99.90;;;;;;4994394;28;20042;-74
2022/10/10 03:41:55;;;;;;;8.63;4.18;;;9.00;99.90;;;;;;5009440;28;20041;-74
2022/10/10 03:44:21;;;;;;;8.10;4.35;;;9.00;99.90;;;;;;5010373;28;20034;-74
2022/10/10 03:46:46;;;;;;;8.00;4.57;;;9.00;99.90;;;;;;4993304;28;20443;-74
2022/10/10 03:49:12;;;;;;;7.15;4.03;;;8.90;99.90;;;;;;5010446;28;20456;-74
2022/10/10 03:51:38;;;;;;;7.80;4.40;;;8.90;99.90;;;;;;5010151;28;20088;-74
2022/10/10 03:54:03;;;;;;;8.38;4.35;;;9.00;99.90;;;;;;4993258;28;20073;-74
2022/10/10 03:56:29;;;;;;;8.38;4.88;;;9.00;99.90;;;;;;4991679;28;20511;-73
2022/10/10 03:58:59;;;;;;;9.68;4.70;;;9.00;99.90;;;;;;4993728;28;20057;-74
2022/10/10 04:01:25;;;;;;;10.82;4.65;;;9.00;99.90;;;;;;4993950;28;20539;-74
2022/10/10 04:03:51;;;;;;;7.38;4.30;;;9.00;99.90;;;;;;4993016;28;20075;-74
2022/10/10 04:06:16;;;;;;;8.27;4.57;;;9.00;99.90;;;;;;4992768;28;20407;-74
2022/10/10 04:08:42;;;;;;;8.85;4.38;;;9.10;99.90;;;;;;4993767;28;20077;-74
2022/10/10 04:11:07;;;;;;;9.55;5.00;;;9.20;99.90;;;;;;4993509;28;20048;-74
2022/10/10 04:13:33;;;;;;;9.02;4.15;;;9.10;99.90;;;;;;4992388;28;20057;-73
2022/10/10 04:15:59;;;;;;;11.40;4.68;;;9.10;99.90;;;;;;4991666;28;20034;-74
2022/10/10 04:18:25;;;;;;;8.98;4.43;;;9.00;99.90;;;;;;4977180;28;20038;-74
2022/10/10 04:20:51;;;;;;;8.45;5.30;;;9.00;99.90;;;;;;5008712;28;20042;-74
2022/10/10 04:23:16;;;;;;;10.77;5.07;;;9.00;99.90;;;;;;4992620;28;20030;-74
2022/10/10 04:25:43;;;;;;;8.90;4.55;;;8.90;99.90;;;;;;5009439;28;20069;-74
2022/10/10 04:28:13;;;;;;;9.15;5.20;;;8.90;99.90;;;;;;4991483;28;20070;-74
2022/10/10 04:30:39;;;;;;;9.27;4.88;;;9.00;99.90;;;;;;4991597;28;20035;-74
2022/10/10 04:33:04;;;;;;;10.40;5.10;;;8.90;99.90;;;;;;4975476;28;20042;-73
2022/10/10 04:35:30;;;;;;;9.02;4.90;;;8.90;99.90;;;;;;4993010;28;20052;-74
2022/10/10 04:37:55;;;;;;;9.32;4.70;;;9.00;99.90;;;;;;5009415;28;20038;-74
2022/10/10 04:40:21;;;;;;;10.02;5.00;;;9.00;99.90;;;;;;5009397;28;20034;-74
2022/10/10 04:42:46;;;;;;;9.63;4.28;;;9.00;99.90;;;;;;4991960;28;20038;-74
2022/10/10 04:45:12;;;;;;;9.90;4.93;;;9.00;99.90;;;;;;4992814;28;20042;-73
2022/10/10 04:47:38;;;;;;;9.45;4.63;;;9.00;99.90;;;;;;5008487;28;20045;-74
2022/10/10 04:50:03;;;;;;;10.70;5.45;;;9.00;99.90;;;;;;4992869;28;20519;-73
2022/10/10 04:52:29;;;;;;;8.77;4.93;;;9.00;99.90;;;;;;4992188;28;20448;-74
2022/10/10 04:54:55;;;;;;;10.10;5.22;;;9.10;99.90;;;;;;4976387;28;20053;-73
2022/10/10 04:57:20;;;;;;;8.90;4.63;;;9.10;99.90;;;;;;4990628;28;20051;-73
2022/10/10 04:59:46;;;;;;;10.88;5.10;;;9.10;99.90;;;;;;4976618;28;20129;-74
2022/10/10 05:02:11;;;;;;;8.70;5.05;;;9.00;99.90;;;;;;4974786;28;20050;-73
2022/10/10 05:04:37;;;;;;;10.50;4.93;;;9.00;99.90;;;;;;5009148;28;20046;-73
2022/10/10 05:07:03;;;;;;;8.73;4.60;;;9.00;99.90;;;;;;4975907;28;20045;-73
2022/10/10 05:09:28;;;;;;;8.88;5.15;;;8.90;99.90;;;;;;4976140;28;20034;-73
2022/10/10 05:11:54;;;;;;;8.90;4.88;;;8.90;99.90;;;;;;4991484;28;20554;-73
2022/10/10 05:14:19;;;;;;;9.02;4.68;;;8.80;99.90;;;;;;4992426;28;20129;-73
2022/10/10 05:16:45;;;;;;;9.75;5.18;;;8.90;99.90;;;;;;4991653;28;20508;-74
2022/10/10 05:19:10;;;;;;;8.65;4.70;;;8.80;99.90;;;;;;4976004;28;20405;-73
2022/10/10 05:21:36;;;;;;;9.18;5.07;;;8.90;99.90;;;;;;4975501;28;20108;-73
2022/10/10 05:24:02;;;;;;;9.25;5.13;;;8.80;99.90;;;;;;5008742;28;20034;-74
2022/10/10 05:26:28;;;;;;;10.77;4.82;;;8.80;99.90;;;;;;4975371;28;20038;-73
2022/10/10 05:28:54;;;;;;;10.32;5.50;;;8.80;99.90;;;;;;4991576;28;20042;-73
2022/10/10 05:31:20;;;;;;;8.90;5.10;;;8.90;99.90;;;;;;4975550;28;20038;-73
2022/10/10 05:33:45;;;;;;;8.43;5.03;;;8.80;99.90;;;;;;4992602;28;20061;-74
2022/10/10 05:36:12;;;;;;;9.35;5.13;;;8.70;99.90;;;;;;4992185;28;20081;-73
2022/10/10 05:38:39;;;;;;;13.35;5.43;;;8.70;99.90;;;;;;4991855;28;20404;-73
2022/10/10 05:41:05;;;;;;;8.70;5.10;;;8.70;99.90;;;;;;5007569;28;20053;-73
2022/10/10 05:43:31;;;;;;;8.52;4.82;;;8.70;99.90;;;;;;4992540;28;20117;-73
2022/10/10 05:45:57;;;;;;;9.73;5.35;;;8.70;99.90;;;;;;5010565;28;20125;-73
2022/10/10 05:48:22;;;;;;;9.52;5.30;;;8.70;99.90;;;;;;4979314;28;20488;-74
2022/10/10 05:50:50;;;;;;;9.98;5.28;;;8.60;99.90;;;;;;4995337;28;20042;-74
2022/10/10 05:53:17;;;;;;;12.05;5.70;;;8.60;99.90;;;;;;4994994;28;20046;-74
2022/10/10 05:55:43;;;;;;;11.77;6.40;;;8.60;99.90;;;;;;4995906;28;20045;-74
2022/10/10 05:58:12;;;;;;;8.23;4.90;;;8.60;99.90;;;;;;4992612;28;20058;-74
2022/10/10 06:00:38;;;;;;;10.85;5.40;;;8.60;99.90;;;;;;4994449;28;20046;-74
2022/10/10 06:03:04;;;;;;;10.75;6.20;;;8.60;99.90;;;;;;4979835;28;20097;-74
2022/10/10 06:05:29;;;;;;;10.18;5.72;;;8.60;99.90;;;;;;5012398;28;20042;-74
2022/10/10 06:07:55;;;;;;;10.13;5.30;;;8.60;99.90;;;;;;5009116;28;20038;-74
2022/10/10 06:10:21;;;;;;;10.27;5.50;;;8.50;99.90;;;;;;4978778;28;20102;-74
2022/10/10 06:12:46;;;;;;;9.13;5.85;;;8.50;99.90;;;;;;5012076;28;20042;-74
2022/10/10 06:15:12;;;;;;;9.02;5.55;;;8.50;99.90;;;;;;5011830;28;20129;-74
2022/10/10 06:17:37;;;;;;;11.30;5.60;;;8.50;99.90;;;;;;4994813;28;20049;-74
2022/10/10 06:20:03;;;;;;;10.00;5.60;;;8.50;99.90;;;;;;5011926;28;20485;-74
2022/10/10 06:22:28;;;;;;;11.60;6.43;;;8.50;99.90;;;;;;4995576;28;20381;-74
2022/10/10 06:24:54;;;;;;;10.07;5.63;;;8.50;99.90;;;;;;4993732;28;20050;-74
2022/10/10 06:27:20;;;;;;;10.88;6.30;;;8.50;99.90;;;;;;4995439;28;20052;-74
2022/10/10 06:29:46;;;;;;;10.40;5.57;;;8.50;99.90;;;;;;5010703;28;20039;-74
2022/10/10 06:32:11;;;;;;;10.23;5.50;;;8.60;99.90;;;;;;4995298;28;20075;-74
2022/10/10 06:34:37;;;;;;;9.02;5.90;;;8.60;99.90;;;;;;4986997;28;20047;-73
2022/10/10 06:37:02;;;;;;;9.30;5.57;;;8.60;99.90;;;;;;4989279;28;20030;-74
2022/10/10 06:39:28;;;;;;;15.18;5.90;;;8.60;99.90;;;;;;4993495;28;20060;-74
2022/10/10 06:41:53;;;;;;;13.82;6.45;;;8.60;99.90;;;;;;4981835;28;20062;-74
2022/10/10 06:44:19;;;;;;;10.32;6.07;;;8.60;99.90;;;;;;4990793;28;20452;-74
2022/10/10 06:46:45;;;;;;;9.65;5.57;;;8.60;99.90;;;;;;4978134;28;20070;-74
2022/10/10 06:49:10;;;;;;;9.25;5.72;;;8.60;99.90;;;;;;4993101;28;20042;-74
2022/10/10 06:51:37;;;;;;;11.63;5.95;;;8.70;99.90;;;;;;4992719;28;20579;-73
2022/10/10 06:54:03;;;;;;;10.30;5.65;;;8.70;99.90;;;;;;4977646;28;20038;-74
2022/10/10 06:56:29;;;;;;;11.32;6.20;;;8.70;99.90;;;;;;4976959;28;20045;-73
2022/10/10 06:58:55;;;;;;;10.48;6.25;;;8.80;99.90;;;;;;5009819;28;20050;-74
2022/10/10 07:01:22;;;;;;;11.65;6.35;;;8.80;99.90;;;;;;4975029;28;20390;-74
2022/10/10 07:03:48;;;;;;;11.13;6.20;;;8.80;99.90;;;;;;5010502;28;20046;-74
2022/10/10 07:06:15;;;;;;;9.73;5.85;;;8.90;99.90;;;;;;4994051;28;20049;-74
2022/10/10 07:08:41;;;;;;;9.82;6.68;;;8.90;99.90;;;;;;4994595;28;20272;-74
2022/10/10 07:11:08;;;;;;;12.13;6.47;;;8.90;99.90;;;;;;4992843;28;20122;-74
2022/10/10 07:13:35;;;;;;;9.65;5.95;;;9.00;99.90;;;;;;4993051;28;20070;-74
2022/10/10 07:16:01;;;;;;;9.27;6.40;;;9.10;99.90;;;;;;4989374;28;20046;-74
2022/10/10 07:18:27;;;;;;;10.88;5.93;;;9.20;99.90;;;;;;5010067;28;20080;-74
2022/10/10 07:20:58;;;;;;;10.57;5.97;;;9.20;99.90;;;;;;4993913;28;20538;-74
2022/10/10 07:23:25;;;;;;;9.90;5.95;;;9.30;99.90;;;;;;5026953;28;20129;-74
2022/10/10 07:25:51;;;;;;;11.07;6.65;;;9.40;99.90;;;;;;5026648;28;20077;-74
2022/10/10 07:28:17;;;;;;;10.15;5.90;;;9.40;99.90;;;;;;4992249;28;20042;-74
2022/10/10 07:30:44;;;;;;;10.75;6.60;;;9.40;99.90;;;;;;4975072;28;20085;-74
2022/10/10 07:33:12;;;;;;;10.30;6.68;;;9.40;99.90;;;;;;4974553;28;20046;-74
2022/10/10 07:35:37;;;;;;;10.45;6.30;;;9.50;99.90;;;;;;5023720;28;20070;-74
2022/10/10 07:38:03;;;;;;;10.95;6.22;;;9.60;99.90;;;;;;4992858;28;20085;-74
2022/10/10 07:40:29;;;;;;;10.95;6.50;;;9.60;99.90;;;;;;5010167;28;20097;-74
2022/10/10 07:42:54;;;;;;;11.20;5.95;;;9.70;99.90;;;;;;4992642;28;20035;-74
2022/10/10 07:45:20;;;;;;;12.02;6.72;;;9.70;99.90;;;;;;4977348;28;20050;-74
2022/10/10 07:47:45;;;;;;;9.80;6.25;;;9.70;99.90;;;;;;4990929;28;20050;-74
2022/10/10 07:50:11;;;;;;;10.55;6.05;;;9.80;99.90;;;;;;4990070;28;20042;-74
2022/10/10 07:52:39;;;;;;;13.25;5.97;;;9.80;99.90;;;;;;5006880;28;20046;-74
2022/10/10 07:55:05;;;;;;;11.18;6.35;;;9.80;99.90;;;;;;4991533;28;20236;-74
2022/10/10 07:57:33;;;;;;;11.57;6.40;;;9.80;99.90;;;;;;5006684;28;20059;-74
2022/10/10 08:00:07;;;;;;;11.55;6.30;;;9.90;99.90;;;;;;4974159;28;20035;-74
2022/10/10 08:02:32;;;;;;;11.10;6.90;;;9.90;99.90;;;;;;5021053;28;20404;-74
2022/10/10 08:04:58;;;;;;;11.98;7.53;;;10.00;99.90;;;;;;4991200;28;20076;-74
2022/10/10 08:07:24;;;;;;;14.85;6.78;;;10.00;99.90;;;;;;4973564;28;20504;-74
2022/10/10 08:09:49;;;;;;;11.73;6.05;;;10.00;99.90;;;;;;4991538;28;20128;-73
2022/10/10 08:12:15;;;;;;;9.93;6.10;;;10.20;99.90;;;;;;4991716;28;20497;-74
2022/10/10 08:14:41;;;;;;;10.68;7.35;;;10.30;99.90;;;;;;4973701;28;20144;-74
2022/10/10 08:17:06;;;;;;;11.20;6.30;;;10.40;99.90;;;;;;5004875;28;20039;-74
2022/10/10 08:19:32;;;;;;;9.65;6.55;;;10.50;99.90;;;;;;5008452;28;20045;-74
2022/10/10 08:21:58;;;;;;;10.80;6.18;;;10.50;99.90;;;;;;4973885;28;20117;-74
2022/10/10 08:24:23;;;;;;;11.77;7.15;;;10.60;99.90;;;;;;4990781;28;20038;-74
2022/10/10 08:26:49;;;;;;;12.55;6.97;;;10.60;99.90;;;;;;4990549;28;20038;-74
2022/10/10 08:29:16;;;;;;;12.82;6.80;;;10.70;99.90;;;;;;5008200;28;20038;-75
2022/10/10 08:31:41;;;;;;;11.25;7.13;;;10.80;99.90;;;;;;4990688;28;20053;-75
2022/10/10 08:34:08;;;;;;;12.60;7.28;;;10.90;99.90;;;;;;5006672;28;20484;-75
2022/10/10 08:36:34;;;;;;;11.98;7.63;;;10.90;99.90;;;;;;4986704;28;20038;-74
2022/10/10 08:39:00;;;;;;;10.77;7.13;;;11.00;99.90;;;;;;4989014;28;20038;-74
2022/10/10 08:41:39;;;;;;;13.55;7.15;;;11.10;99.90;;;;;;4983424;28;20042;-74
2022/10/10 08:44:13;;;;;;;12.63;7.47;;;11.10;99.90;;;;;;4989551;28;20042;-74
2022/10/10 08:47:02;;;;;;;11.70;6.72;;;11.20;99.90;;;;;;4964445;28;20062;-75
2022/10/10 08:49:35;;;;;;;11.63;6.82;;;11.30;99.90;;;;;;4985681;28;20164;-75
2022/10/10 08:52:13;;;;;;;10.90;7.45;;;11.40;99.90;;;;;;4991408;28;21815;-75
2022/10/10 08:54:41;;;;;;;12.05;6.85;;;11.50;99.90;;;;;;5004032;28;20575;-75
2022/10/10 08:57:22;;;;;;;12.90;7.68;;;11.60;99.90;;;;;;4990378;28;20476;-75
2022/10/10 08:59:49;;;;;;;10.85;7.40;;;11.80;99.90;;;;;;4991093;28;20044;-75
2022/10/10 09:02:31;;;;;;;13.10;6.75;;;11.90;99.90;;;;;;5003923;28;20400;-75
2022/10/10 09:04:56;;;;;;;10.50;6.68;;;12.00;99.90;;;;;;4990361;28;20049;-75
2022/10/10 09:08:00;;;;;;;11.55;6.60;;;12.20;99.90;;;;;;4997203;28;20042;-75
2022/10/10 09:10:42;;;;;;;13.60;7.72;;;12.20;99.90;;;;;;5015932;28;20055;-75
2022/10/10 09:13:16;;;;;;;12.90;7.28;;;12.30;99.90;;;;;;4975051;28;20057;-75
2022/10/10 09:15:56;;;;;;;11.40;7.05;;;12.40;99.90;;;;;;4981267;28;20476;-75
2022/10/10 09:18:38;;;;;;;13.98;7.03;;;12.40;99.90;;;;;;4988544;28;20042;-75
2022/10/10 09:21:04;;;;;;;;;;;12.50;99.90;;;;;;4990519;28;20034;-75
2022/10/10 09:23:40;;;;;;;12.00;7.57;;;12.60;99.90;;;;;;5007903;28;19969;-75
2022/10/10 09:26:11;;;;;;;12.85;8.02;;;12.60;99.90;;;;;;4972027;28;20199;-75
2022/10/10 09:28:46;;;;;;;12.73;7.43;;;12.60;99.90;;;;;;4990129;28;20053;-75
2022/10/10 09:31:18;;;;;;;15.65;7.88;;;12.70;99.90;;;;;;5021571;28;20092;-75
2022/10/10 09:33:52;;;;;;;13.35;7.68;;;12.80;99.90;;;;;;5004905;28;20061;-75
2022/10/10 09:36:23;;;;;;;12.90;7.38;;;13.00;99.90;;;;;;5002205;28;20054;-75
2022/10/10 09:38:58;;;;;;;11.70;6.82;;;13.10;99.90;;;;;;5006007;28;20034;-70
2022/10/10 09:41:44;;;;;;;12.75;7.25;;;13.10;99.90;;;;;;4989946;28;20122;-76
2022/10/10 09:44:12;;;;;;;11.73;6.88;;;13.20;99.90;;;;;;5005097;28;20125;-76
2022/10/10 09:46:38;;;;;;;11.52;6.88;;;13.30;99.90;;;;;;5003781;28;20046;-76
2022/10/10 09:49:04;;;;;;;13.82;7.20;;;13.40;99.90;;;;;;4988977;28;20038;-76
2022/10/10 09:51:30;;;;;;;11.75;6.95;;;13.50;99.90;;;;;;4974321;28;20070;-76
2022/10/10 09:53:56;;;;;;;12.20;7.03;;;13.50;99.90;;;;;;4990876;28;20042;-76
2022/10/10 09:56:25;;;;;;;10.77;7.10;;;13.60;99.90;;;;;;4990322;28;20051;-76
2022/10/10 09:58:53;;;;;;;13.43;7.90;;;13.60;99.90;;;;;;4990700;28;20097;-76
2022/10/10 10:01:25;;;;;;;14.07;7.90;;;13.60;99.90;;;;;;4991295;28;20385;-76
2022/10/10 10:04:05;;;;;;;;;;;13.60;99.90;;;;;;4989578;28;20121;-77
2022/10/10 10:06:31;;;;;;;12.30;7.13;;;13.70;99.90;;;;;;4991693;28;19917;-77
2022/10/10 10:09:01;;;;;;;12.50;6.63;;;13.60;99.90;;;;;;5004591;28;20447;-76
2022/10/10 10:11:31;;;;;;;11.68;7.22;;;13.70;99.90;;;;;;4990267;28;20447;-76
2022/10/10 10:14:01;;;;;;;13.23;7.20;;;13.60;99.90;;;;;;4974473;28;20531;-76
2022/10/10 10:16:33;;;;;;;10.55;7.10;;;13.70;99.90;;;;;;4991250;28;20038;-76
2022/10/10 10:18:58;;;;;;;;;;;13.60;99.90;;;;;;4973706;28;20117;-76
2022/10/10 10:21:24;;;;;;;13.30;7.63;;;13.70;99.90;;;;;;4991477;28;19968;-76
2022/10/10 10:23:55;;;;;;;12.93;6.82;;;13.70;99.90;;;;;;4974821;28;20047;-76
2022/10/10 10:26:26;;;;;;;12.63;7.43;;;13.70;99.90;;;;;;4988595;28;20050;-77
2022/10/10 10:28:54;;;;;;;14.53;6.70;;;13.90;99.90;;;;;;5017073;28;20500;-77
2022/10/10 10:31:23;;;;;;;12.10;6.97;;;13.90;99.90;;;;;;4988515;28;20074;-77
2022/10/10 10:34:05;;;;;;;13.52;7.05;;;14.00;99.90;;;;;;4973107;28;20504;-77
2022/10/10 10:36:50;;;;;;;13.13;6.60;;;14.10;99.90;;;;;;5024118;28;20093;-77
2022/10/10 10:39:34;;;;;;;14.32;7.45;;;14.20;99.90;;;;;;5008977;28;20073;-77
2022/10/10 10:42:22;;;;;;;14.13;6.95;;;14.10;99.90;;;;;;5010112;28;20035;-77
2022/10/10 10:45:28;;;;;;;12.80;6.95;;;14.10;99.90;;;;;;4992352;28;20042;-78
2022/10/10 10:48:18;;;;;;;12.18;6.45;;;14.20;99.90;;;;;;4989281;28;20050;-77
2022/10/10 10:50:50;;;;;;;11.30;6.50;;;14.30;99.90;;;;;;4976289;28;20045;-78
2022/10/10 10:53:31;;;;;;;13.00;7.05;;;14.40;99.90;;;;;;5009473;28;20042;-77
2022/10/10 10:56:18;;;;;;;10.80;6.40;;;14.50;99.90;;;;;;5009397;28;20089;-77
2022/10/10 10:59:05;;;;;;;14.40;6.30;;;14.50;99.90;;;;;;4977274;28;20527;-82
2022/10/10 11:01:35;;;;;;;12.77;6.05;;;14.50;99.90;;;;;;4958987;28;20093;-77
2022/10/10 11:04:16;;;;;;;11.90;6.88;;;14.50;99.90;;;;;;4984392;28;20038;-77
2022/10/10 11:06:47;;;;;;;12.30;5.90;;;14.60;99.90;;;;;;5020674;28;20658;-77
2022/10/10 11:09:21;;;;;;;11.07;5.88;;;14.70;99.90;;;;;;4986895;28;20086;-77
2022/10/10 11:11:59;;;;;;;12.40;6.03;;;14.70;99.90;;;;;;4983892;28;20053;-77
2022/10/10 11:14:50;;;;;;;10.18;6.13;;;14.80;99.90;;;;;;5009711;28;20050;-77
2022/10/10 11:17:15;;;;;;;9.82;5.90;;;14.80;99.90;;;;;;5009735;28;20057;-77
2022/10/10 11:19:55;;;;;;;11.20;6.43;;;14.80;99.90;;;;;;5006654;28;20034;-77
2022/10/10 11:22:24;;;;;;;8.95;5.47;;;14.80;99.90;;;;;;5008902;28;20042;-76
2022/10/10 11:25:22;;;;;;;10.57;5.80;;;14.80;99.90;;;;;;4991392;28;20436;-77
2022/10/10 11:27:56;;;;;;;10.80;5.82;;;14.80;99.90;;;;;;5004143;28;21566;-77
2022/10/10 11:30:28;;;;;;;11.23;5.80;;;14.70;99.90;;;;;;4988628;28;20034;-77
2022/10/10 11:33:08;;;;;;;11.27;5.55;;;14.60;99.90;;;;;;4991864;28;20125;-76
2022/10/10 11:36:01;;;;;;;11.40;5.75;;;14.60;99.90;;;;;;4992621;28;20042;-77
2022/10/10 11:38:29;;;;;;;;;;;14.60;99.90;;;;;;5003439;28;20050;-77
2022/10/10 11:41:04;;;;;;;10.35;5.75;;;14.50;99.90;;;;;;5025985;28;19952;-77
2022/10/10 11:43:53;;;;;;;9.98;5.63;;;14.50;99.90;;;;;;4991725;28;20030;-77
2022/10/10 11:46:42;;;;;;;12.20;6.13;;;14.50;99.90;;;;;;5023145;28;20049;-77
2022/10/10 11:49:11;;;;;;;16.17;6.00;;;14.40;99.90;;;;;;5009833;28;20165;-77
2022/10/10 11:52:05;;;;;;;9.40;5.72;;;14.40;99.90;;;;;;5001424;28;20125;-77
2022/10/10 11:54:42;;;;;;;11.30;6.28;;;14.40;99.90;;;;;;5025720;28;20136;-76
2022/10/10 11:57:29;;;;;;;10.93;6.13;;;14.30;99.90;;;;;;4993827;28;20509;-76
2022/10/10 12:00:09;;;;;;;10.18;5.90;;;14.20;99.90;;;;;;4988334;28;20126;-76
2022/10/10 12:02:39;;;;;;;15.05;6.85;;;14.30;99.90;;;;;;4992158;28;20554;-77
2022/10/10 12:05:06;;;;;;;12.30;7.30;;;14.40;99.90;;;;;;4991641;28;20451;-76
2022/10/10 12:08:06;;;;;;;12.60;6.70;;;14.30;99.90;;;;;;4993939;28;20373;-76
2022/10/10 12:10:49;;;;;;;10.90;6.20;;;14.30;99.90;;;;;;4989352;28;20121;-76
2022/10/10 12:13:30;;;;;;;12.65;7.38;;;14.20;99.90;;;;;;4992615;28;20129;-77
2022/10/10 12:16:00;;;;;;;11.00;6.53;;;14.20;99.90;;;;;;5009576;28;20125;-77
2022/10/10 12:18:49;;;;;;;11.70;6.72;;;14.20;99.90;;;;;;5020630;28;20045;-76
2022/10/10 12:21:18;;;;;;;12.80;7.38;;;14.10;99.90;;;;;;4992611;28;20508;-76
2022/10/10 12:23:47;;;;;;;14.20;7.10;;;14.10;99.90;;;;;;4992815;28;20048;-76
2022/10/10 12:26:19;;;;;;;11.18;6.88;;;14.10;99.90;;;;;;4992830;28;20070;-77
2022/10/10 12:29:08;;;;;;;12.52;6.32;;;14.10;99.90;;;;;;5023649;28;20596;-77
2022/10/10 12:31:38;;;;;;;12.63;7.05;;;14.10;99.90;;;;;;4976451;28;20038;-77
2022/10/10 12:34:14;;;;;;;13.57;7.20;;;14.10;99.90;;;;;;4992224;28;20050;-77
2022/10/10 12:36:53;;;;;;;12.48;7.40;;;14.20;99.90;;;;;;5024750;28;20412;-77
2022/10/10 12:39:19;;;;;;;14.98;7.82;;;14.20;99.90;;;;;;4989355;28;20056;-77
2022/10/10 12:41:47;;;;;;;13.88;7.45;;;14.20;99.90;;;;;;4998299;28;20555;-77
2022/10/10 12:44:42;;;;;;;12.32;8.10;;;14.20;99.90;;;;;;4977029;28;20443;-77
2022/10/10 12:47:14;;;;;;;11.27;7.22;;;14.20;99.90;;;;;;4989977;28;20042;-77
2022/10/10 12:49:51;;;;;;;13.73;7.82;;;14.30;99.90;;;;;;5008644;28;20100;-76
2022/10/10 12:52:48;;;;;;;11.32;7.20;;;14.30;99.90;;;;;;4979626;28;20069;-77
2022/10/10 12:55:24;;;;;;;15.98;7.55;;;14.20;99.90;;;;;;4997968;28;20038;-76
2022/10/10 12:57:53;;;;;;;15.38;8.32;;;14.20;99.90;;;;;;5023190;28;20053;-76
2022/10/10 13:00:25;;;;;;;11.70;7.38;;;14.20;99.90;;;;;;5011923;28;20099;-77
2022/10/10 13:02:54;;;;;;;13.20;7.53;;;14.10;99.90;;;;;;4978460;28;20070;-76
2022/10/10 13:05:36;;;;;;;11.90;7.55;;;14.10;99.90;;;;;;4974520;28;20039;-77